createdAt,value
2019-02-24T00:01:31.813Z,4.80
2019-02-24T00:05:35.972Z,5.27
2019-02-24T00:09:40.989Z,7.13
2019-02-24T00:13:44.996Z,4.87
2019-02-24T00:17:48.897Z,5.30
2019-02-24T00:21:52.906Z,9.00
2019-02-24T00:25:56.787Z,6.93
2019-02-24T00:30:01.016Z,6.63
2019-02-24T00:34:05.116Z,5.23
2019-02-24T00:38:10.930Z,5.43
2019-02-24T00:42:14.932Z,5.90
2019-02-24T00:46:18.933Z,5.47
2019-02-24T00:50:22.957Z,5.77
2019-02-24T00:54:27.097Z,5.37
2019-02-24T00:58:31.204Z,6.30
2019-02-24T01:02:35.161Z,5.93
2019-02-24T01:06:39.050Z,5.73
2019-02-24T01:10:43.046Z,5.03
2019-02-24T01:14:47.188Z,5.43
2019-02-24T01:18:51.136Z,6.50
2019-02-24T01:22:55.157Z,5.10
2019-02-24T01:26:59.055Z,4.53
2019-02-24T01:31:09.846Z,5.33
2019-02-24T01:35:13.882Z,6.77
2019-02-24T01:39:17.925Z,7.20
2019-02-24T01:43:21.959Z,5.60
2019-02-24T01:47:26.030Z,5.93
2019-02-24T01:51:31.141Z,6.47
2019-02-24T01:55:35.179Z,7.43
2019-02-24T01:59:39.353Z,6.57
2019-02-24T02:03:43.439Z,6.83
2019-02-24T02:07:47.442Z,6.70
2019-02-24T02:11:51.451Z,8.07
2019-02-24T02:15:55.604Z,5.93
2019-02-24T02:19:59.687Z,6.23
2019-02-24T02:24:03.582Z,6.57
2019-02-24T02:28:07.677Z,4.80
2019-02-24T02:32:11.782Z,5.73
2019-02-24T02:36:15.795Z,5.57
2019-02-24T02:40:19.880Z,4.53
2019-02-24T02:44:23.834Z,4.60
2019-02-24T02:48:27.976Z,5.80
2019-02-24T02:52:31.941Z,5.43
2019-02-24T02:56:35.928Z,4.73
2019-02-24T03:00:39.914Z,6.17
2019-02-24T03:04:43.903Z,5.03
2019-02-24T03:08:50.224Z,4.53
2019-02-24T03:12:54.494Z,6.03
2019-02-24T03:16:58.413Z,6.87
2019-02-24T03:21:02.515Z,3.73
2019-02-24T03:25:06.868Z,5.03
2019-02-24T03:29:10.947Z,6.27
2019-02-24T03:33:15.009Z,4.67
2019-02-24T03:37:19.094Z,4.07
2019-02-24T03:41:24.020Z,5.17
2019-02-24T03:45:27.954Z,3.57
2019-02-24T03:49:31.977Z,5.57
2019-02-24T03:53:36.010Z,6.30
2019-02-24T03:57:40.027Z,4.93
2019-02-24T04:01:44.078Z,5.60
2019-02-24T04:05:48.229Z,4.33
2019-02-24T04:09:52.185Z,4.50
2019-02-24T04:13:56.476Z,4.90
2019-02-24T04:18:00.463Z,5.27
2019-02-24T04:22:04.708Z,4.77
2019-02-24T04:26:08.776Z,4.87
2019-02-24T04:30:12.906Z,4.67
2019-02-24T04:34:16.939Z,4.53
2019-02-24T04:38:21.065Z,4.77
2019-02-24T04:42:25.257Z,5.80
2019-02-24T04:46:29.363Z,5.33
2019-02-24T04:50:33.262Z,5.47
2019-02-24T04:54:37.369Z,5.17
2019-02-24T04:58:41.428Z,4.43
2019-02-24T05:02:45.669Z,5.97
2019-02-24T05:06:49.625Z,4.70
2019-02-24T05:10:53.522Z,4.87
2019-02-24T05:14:57.682Z,7.23
2019-02-24T05:19:01.749Z,4.30
2019-02-24T05:23:05.813Z,5.20
2019-02-24T05:27:09.958Z,4.50
2019-02-24T05:31:14.163Z,4.97
2019-02-24T05:35:18.127Z,4.30
2019-02-24T05:39:22.218Z,4.33
2019-02-24T05:43:26.330Z,5.00
2019-02-24T05:47:30.353Z,4.33
2019-02-24T05:51:34.472Z,4.97
2019-02-24T05:55:38.564Z,4.67
2019-02-24T05:59:42.634Z,6.73
2019-02-24T06:03:46.633Z,4.10
2019-02-24T06:07:50.621Z,4.43
2019-02-24T06:11:54.861Z,6.87
2019-02-24T06:15:58.950Z,4.63
2019-02-24T06:20:03.103Z,4.13
2019-02-24T06:24:07.315Z,4.90
2019-02-24T06:28:11.461Z,5.93
2019-02-24T06:32:15.590Z,4.93
2019-02-24T06:36:19.834Z,8.07
2019-02-24T06:40:23.935Z,5.07
2019-02-24T06:44:27.986Z,3.53
2019-02-24T06:48:33.269Z,5.57
2019-02-24T06:52:37.284Z,4.97
2019-02-24T06:56:41.318Z,4.13
2019-02-24T07:00:45.508Z,4.77
2019-02-24T07:04:49.508Z,4.70
2019-02-24T07:08:53.464Z,4.33
2019-02-24T07:12:57.436Z,4.40
2019-02-24T07:17:01.675Z,4.13
2019-02-24T07:21:05.531Z,3.73
2019-02-24T07:25:09.572Z,4.50
2019-02-24T07:29:13.525Z,5.13
2019-02-24T07:33:17.654Z,3.57
2019-02-24T07:37:21.597Z,5.13
2019-02-24T07:41:25.650Z,2.67
2019-02-24T07:45:29.695Z,2.20
2019-02-24T07:49:33.796Z,3.07
2019-02-24T07:53:37.738Z,4.20
2019-02-24T07:57:41.765Z,2.33
2019-02-24T08:01:46.703Z,3.57
2019-02-24T08:05:50.641Z,3.43
2019-02-24T08:09:54.512Z,2.87
2019-02-24T08:13:58.589Z,2.57
2019-02-24T08:18:02.542Z,2.73
2019-02-24T08:22:06.545Z,2.73
2019-02-24T08:26:10.630Z,3.03
2019-02-24T08:30:14.713Z,3.93
2019-02-24T08:34:18.854Z,3.70
2019-02-24T08:38:22.810Z,2.93
2019-02-24T08:42:26.820Z,2.53
2019-02-24T08:46:30.853Z,4.80
2019-02-24T08:50:35.075Z,2.80
2019-02-24T08:54:39.155Z,3.33
2019-02-24T08:58:43.351Z,3.10
2019-02-24T09:02:48.588Z,2.10
2019-02-24T09:06:53.959Z,2.73
2019-02-24T09:10:57.999Z,5.13
2019-02-24T09:15:02.022Z,3.20
2019-02-24T09:19:06.039Z,2.97
2019-02-24T09:23:10.144Z,1.97
2019-02-24T09:27:14.017Z,2.60
2019-02-24T09:31:18.141Z,2.43
2019-02-24T09:35:22.157Z,3.57
2019-02-24T09:39:26.314Z,2.80
2019-02-24T09:43:30.388Z,3.23
2019-02-24T09:47:34.388Z,2.20
2019-02-24T09:51:38.443Z,2.33
2019-02-24T09:55:42.423Z,3.63
2019-02-24T09:59:46.376Z,3.00
2019-02-24T10:03:50.420Z,2.37
2019-02-24T10:07:54.507Z,2.97
2019-02-24T10:11:58.662Z,3.30
2019-02-24T10:16:02.642Z,3.27
2019-02-24T10:20:07.131Z,2.60
2019-02-24T10:24:11.154Z,3.00
2019-02-24T10:28:15.198Z,2.93
2019-02-24T10:32:19.312Z,2.30
2019-02-24T10:36:23.345Z,2.63
2019-02-24T10:40:27.354Z,3.60
2019-02-24T10:44:31.664Z,2.63
2019-02-24T10:48:35.750Z,2.20
2019-02-24T10:52:39.730Z,1.77
2019-02-24T10:56:43.721Z,3.23
2019-02-24T11:00:47.853Z,2.50
2019-02-24T11:04:51.872Z,3.60
2019-02-24T11:08:55.867Z,1.73
2019-02-24T11:13:00.140Z,1.90
2019-02-24T11:17:04.225Z,2.43
2019-02-24T11:21:08.330Z,2.10
2019-02-24T11:25:13.073Z,1.97
2019-02-24T11:29:17.171Z,1.73
2019-02-24T11:33:21.103Z,1.80
2019-02-24T11:37:25.014Z,1.10
2019-02-24T11:41:29.137Z,1.40
2019-02-24T11:45:33.241Z,1.97
2019-02-24T11:49:37.228Z,2.60
2019-02-24T11:53:41.221Z,1.17
2019-02-24T11:57:45.443Z,2.65
2019-02-24T12:01:49.516Z,1.43
2019-02-24T12:05:54.527Z,1.53
2019-02-24T12:09:58.615Z,2.20
2019-02-24T12:14:03.254Z,1.17
2019-02-24T12:18:07.290Z,0.80
2019-02-24T12:22:11.535Z,1.15
2019-02-24T12:26:15.771Z,1.43
2019-02-24T12:30:20.031Z,1.65
2019-02-24T12:34:24.214Z,1.43
2019-02-24T12:38:28.222Z,1.97
2019-02-24T12:42:32.673Z,1.87
2019-02-24T12:46:36.850Z,1.90
2019-02-24T12:50:40.935Z,1.50
2019-02-24T12:54:45.073Z,1.27
2019-02-24T12:58:49.191Z,1.47
2019-02-24T13:02:53.583Z,1.27
2019-02-24T13:06:57.786Z,1.22
2019-02-24T13:11:01.913Z,1.22
2019-02-24T13:15:07.086Z,2.22
2019-02-24T13:19:11.238Z,1.53
2019-02-24T13:23:15.426Z,1.32
2019-02-24T13:27:19.568Z,2.85
2019-02-24T13:31:23.727Z,1.20
2019-02-24T13:35:27.812Z,1.22
2019-02-24T13:39:31.871Z,1.27
2019-02-24T13:43:35.974Z,0.78
2019-02-24T13:47:39.997Z,2.47
2019-02-24T13:51:44.031Z,1.40
2019-02-24T13:55:48.178Z,2.58
2019-02-24T13:59:52.223Z,1.70
2019-02-24T14:03:56.487Z,1.50
2019-02-24T14:08:00.759Z,1.40
2019-02-24T14:12:04.848Z,1.40
2019-02-24T14:16:08.823Z,0.83
2019-02-24T14:20:12.808Z,2.23
2019-02-24T14:24:16.854Z,1.35
2019-02-24T14:28:21.128Z,3.55
2019-02-24T14:32:32.827Z,2.00
2019-02-24T14:36:32.106Z,1.83
2019-02-24T14:40:36.005Z,2.05
2019-02-24T14:44:40.163Z,1.32
2019-02-24T14:48:44.805Z,1.70
2019-02-24T14:52:48.846Z,0.63
2019-02-24T14:56:53.048Z,1.83
2019-02-24T15:00:58.144Z,1.47
2019-02-24T15:05:02.282Z,1.77
2019-02-24T15:09:06.419Z,1.60
2019-02-24T15:13:11.821Z,1.10
2019-02-24T15:17:15.811Z,1.37
2019-02-24T15:21:20.405Z,1.53
2019-02-24T15:25:24.517Z,1.80
2019-02-24T15:29:28.684Z,4.33
2019-02-24T15:33:32.727Z,1.70
2019-02-24T15:37:37.790Z,1.63
2019-02-24T15:41:41.836Z,1.82
2019-02-24T15:45:45.985Z,2.00
2019-02-24T15:49:50.048Z,3.37
2019-02-24T15:53:54.318Z,2.33
2019-02-24T15:57:58.343Z,1.83
2019-02-24T16:02:02.335Z,2.03
2019-02-24T16:06:06.422Z,3.13
2019-02-24T16:10:11.489Z,2.37
2019-02-24T16:14:15.453Z,4.80
2019-02-24T16:18:19.529Z,1.97
2019-02-24T16:22:23.723Z,3.03
2019-02-24T16:26:27.773Z,3.50
2019-02-24T16:30:31.865Z,32.40
2019-02-24T16:34:35.881Z,35.63
2019-02-24T16:38:39.813Z,18.63
2019-02-24T16:42:43.803Z,8.67
2019-02-24T16:46:47.821Z,4.13
2019-02-24T16:50:51.878Z,5.23
2019-02-24T16:54:56.807Z,3.70
2019-02-24T16:59:01.027Z,2.40
2019-02-24T17:03:05.092Z,2.27
2019-02-24T17:07:09.161Z,8.43
2019-02-24T17:11:15.489Z,4.50
2019-02-24T17:15:19.555Z,5.23
2019-02-24T17:19:23.639Z,3.80
2019-02-24T17:23:27.807Z,3.33
2019-02-24T17:27:31.727Z,3.83
2019-02-24T17:31:35.811Z,2.67
2019-02-24T17:35:40.435Z,4.80
2019-02-24T17:39:44.911Z,8.33
2019-02-24T17:43:48.887Z,5.73
2019-02-24T17:47:52.763Z,5.07
2019-02-24T17:51:58.537Z,5.80
2019-02-24T17:56:02.639Z,4.63
2019-02-24T18:00:09.473Z,5.70
2019-02-24T18:04:13.771Z,5.83
2019-02-24T18:08:17.842Z,6.20
2019-02-24T18:12:21.901Z,5.43
2019-02-24T18:16:25.968Z,3.43
2019-02-24T18:20:29.991Z,1.80
2019-02-24T18:24:35.380Z,3.27
2019-02-24T18:28:39.302Z,2.60
2019-02-24T18:32:44.367Z,3.90
2019-02-24T18:36:48.572Z,2.33
2019-02-24T18:40:52.557Z,2.43
2019-02-24T18:44:56.526Z,2.27
2019-02-24T18:49:00.380Z,2.37
2019-02-24T18:53:08.133Z,1.70
2019-02-24T18:57:12.200Z,5.53
2019-02-24T19:01:17.565Z,21.10
2019-02-24T19:05:21.580Z,14.83
2019-02-24T19:09:25.661Z,10.20
2019-02-24T19:13:29.711Z,6.10
2019-02-24T19:17:33.603Z,3.47
2019-02-24T19:21:37.599Z,3.30
2019-02-24T19:25:41.562Z,3.83
2019-02-24T19:29:45.531Z,4.20
2019-02-24T19:33:49.464Z,5.33
2019-02-24T19:37:53.450Z,3.10
2019-02-24T19:41:57.359Z,3.33
2019-02-24T19:46:01.724Z,2.97
2019-02-24T19:50:06.936Z,2.27
2019-02-24T19:54:11.112Z,2.33
2019-02-24T19:58:15.281Z,3.30
2019-02-24T20:02:19.476Z,2.47
2019-02-24T20:06:23.507Z,2.50
2019-02-24T20:10:27.862Z,2.40
2019-02-24T20:14:31.825Z,2.43
2019-02-24T20:18:35.998Z,2.17
2019-02-24T20:22:39.961Z,3.40
2019-02-24T20:26:44.229Z,2.67
2019-02-24T20:30:48.428Z,4.03
2019-02-24T20:34:52.491Z,4.53
2019-02-24T20:38:56.766Z,3.83
2019-02-24T20:43:04.133Z,3.43
2019-02-24T20:47:10.539Z,2.97
2019-02-24T20:51:15.689Z,3.37
2019-02-24T20:55:23.489Z,3.40
2019-02-24T20:59:27.544Z,3.37
2019-02-24T21:03:31.881Z,2.93
2019-02-24T21:07:35.963Z,3.03
2019-02-24T21:11:39.981Z,4.27
2019-02-24T21:15:43.968Z,3.40
2019-02-24T21:19:48.047Z,2.60
2019-02-24T21:23:51.987Z,2.60
2019-02-24T21:27:55.953Z,3.37
2019-02-24T21:32:00.009Z,3.40
2019-02-24T21:36:03.969Z,3.93
2019-02-24T21:40:08.563Z,3.77
2019-02-24T21:44:12.578Z,2.83
2019-02-24T21:48:16.619Z,3.53
2019-02-24T21:52:20.648Z,2.33
2019-02-24T21:56:24.802Z,4.20
2019-02-24T22:00:29.631Z,3.20
2019-02-24T22:04:33.643Z,3.43
2019-02-24T22:08:37.719Z,6.20
2019-02-24T22:12:41.840Z,6.10
2019-02-24T22:16:45.818Z,5.80
2019-02-24T22:20:49.800Z,4.10
2019-02-24T22:24:53.901Z,4.17
2019-02-24T22:28:58.074Z,2.47
2019-02-24T22:33:02.151Z,3.07
2019-02-24T22:37:06.099Z,2.70
2019-02-24T22:41:09.986Z,2.37
2019-02-24T22:45:16.613Z,3.50
2019-02-24T22:49:20.253Z,3.27
2019-02-24T22:53:26.804Z,2.93
2019-02-24T22:57:30.771Z,2.17
2019-02-24T23:01:37.835Z,2.20
2019-02-24T23:05:42.112Z,4.47
2019-02-24T23:09:46.121Z,4.23
2019-02-24T23:13:50.132Z,4.30
2019-02-24T23:17:54.151Z,4.10
2019-02-24T23:21:58.223Z,4.57
2019-02-24T23:26:02.347Z,3.87
2019-02-24T23:30:06.369Z,4.70
2019-02-24T23:34:10.412Z,3.57
2019-02-24T23:38:14.479Z,3.30
2019-02-24T23:42:18.480Z,2.77
2019-02-24T23:46:22.460Z,2.50
2019-02-24T23:50:26.546Z,1.53
2019-02-24T23:54:30.594Z,3.60
2019-02-24T23:58:34.834Z,2.07
